createdAt,value
2023-06-04T00:59:01.966Z,21.8
2023-06-04T02:09:03.295Z,21.7
2023-06-04T03:09:04.458Z,21.6
2023-06-04T03:19:04.729Z,21.6
2023-06-04T03:29:04.874Z,21.6
2023-06-04T03:59:05.412Z,21.6
2023-06-04T04:49:06.348Z,21.5
2023-06-04T05:09:06.760Z,21.6
2023-06-04T05:29:07.112Z,21.6
2023-06-04T05:49:07.552Z,21.6
2023-06-04T05:59:07.674Z,21.6
2023-06-04T06:09:07.880Z,21.7
2023-06-04T06:19:08.068Z,21.7
2023-06-04T06:29:08.262Z,21.7
2023-06-04T06:39:08.457Z,21.8
2023-06-04T06:49:08.625Z,21.8
2023-06-04T06:59:08.820Z,21.9
2023-06-04T07:09:09.012Z,22
2023-06-04T07:19:09.202Z,22
2023-06-04T07:29:09.394Z,22
2023-06-04T07:39:09.571Z,22.1
2023-06-04T07:59:09.960Z,22.2
2023-06-04T08:09:10.152Z,22.3
2023-06-04T08:19:10.349Z,22.3
2023-06-04T08:29:10.536Z,22.4
2023-06-04T08:39:10.721Z,22.4
2023-06-04T08:49:10.909Z,22.4
2023-06-04T09:09:11.384Z,22.5
2023-06-04T09:19:11.487Z,22.5
2023-06-04T09:29:11.677Z,22.6
2023-06-04T09:39:11.863Z,22.6
2023-06-04T09:49:12.062Z,22.6
2023-06-04T09:59:12.307Z,22.6
2023-06-04T10:09:12.452Z,22.6
2023-06-04T10:19:12.662Z,22.7
2023-06-04T10:39:13.007Z,22.7
2023-06-04T13:09:15.853Z,22.5
2023-06-04T13:19:16.040Z,22.5
2023-06-04T13:29:16.233Z,22.5
2023-06-04T13:39:16.433Z,22.5
2023-06-04T13:49:16.611Z,22.5
2023-06-04T13:59:16.828Z,22.5
2023-06-04T14:09:17.028Z,22.5
2023-06-04T14:29:17.368Z,22.6
2023-06-04T14:39:17.826Z,22.6
2023-06-04T14:49:17.761Z,22.6
2023-06-04T14:59:17.961Z,22.6
2023-06-04T15:09:18.140Z,22.6
2023-06-04T15:19:18.326Z,22.6
2023-06-04T15:29:18.532Z,22.6
2023-06-04T15:39:18.722Z,22.6
2023-06-04T15:49:18.904Z,22.6
2023-06-04T15:59:19.089Z,22.6
2023-06-04T16:09:19.280Z,22.6
2023-06-04T16:19:19.473Z,22.6
2023-06-04T16:29:19.660Z,22.6
2023-06-04T16:39:19.865Z,22.6
2023-06-04T16:49:20.044Z,22.6
2023-06-04T16:59:20.237Z,22.6
2023-06-04T17:09:20.418Z,22.6
2023-06-04T17:19:20.614Z,22.6
2023-06-04T17:29:20.796Z,22.6
2023-06-04T17:39:20.993Z,22.6
2023-06-04T17:49:21.198Z,22.6
2023-06-04T17:59:21.387Z,22.6
2023-06-04T18:09:21.560Z,22.6
2023-06-04T18:19:22.190Z,22.6
2023-06-04T18:29:21.940Z,22.6
2023-06-04T18:49:22.374Z,22.6
2023-06-04T18:59:22.512Z,22.6
2023-06-04T19:09:22.703Z,22.6
2023-06-04T19:19:22.894Z,22.6
2023-06-04T19:29:23.082Z,22.6
2023-06-04T19:49:23.457Z,22.6
2023-06-04T19:59:23.665Z,22.6
2023-06-04T20:09:23.868Z,22.6
2023-06-04T20:19:24.024Z,22.5
2023-06-04T20:29:24.221Z,22.5
2023-06-04T20:39:24.408Z,22.5
2023-06-04T20:59:24.799Z,22.5
2023-06-04T21:09:25.031Z,22.5
2023-06-04T21:19:25.196Z,22.5
2023-06-04T21:29:25.363Z,22.5
2023-06-04T21:39:25.572Z,22.5
2023-06-04T21:49:25.767Z,22.5
2023-06-04T22:29:26.521Z,22.5
2023-06-04T22:49:26.883Z,22.5
2023-06-04T22:59:27.083Z,22.5
2023-06-04T23:09:27.269Z,22.5
2023-06-04T23:19:27.455Z,22.5
2023-06-04T23:29:27.689Z,22.4
2023-06-04T23:39:27.839Z,22.4
2023-06-04T23:49:28.038Z,22.4
2023-06-04T23:59:28.200Z,22.4
